createdAt,value
2023-02-05T00:02:45.230Z,34.63
2023-02-05T00:05:51.016Z,37.60
2023-02-05T00:08:56.514Z,32.70
2023-02-05T00:12:01.791Z,35.15
2023-02-05T00:15:06.783Z,37.83
2023-02-05T00:18:13.642Z,33.10
2023-02-05T00:21:21.146Z,40.50
2023-02-05T00:24:26.496Z,45.08
2023-02-05T00:27:32.309Z,40.65
2023-02-05T00:30:38.563Z,37.05
2023-02-05T00:33:45.046Z,37.45
2023-02-05T00:36:50.637Z,45.95
2023-02-05T00:39:57.577Z,39.63
2023-02-05T00:42:58.597Z,37.67
2023-02-05T00:46:04.854Z,38.13
2023-02-05T00:49:10.997Z,36.80
2023-02-05T00:52:17.862Z,48.50
2023-02-05T00:55:16.393Z,35.03
2023-02-05T00:58:22.674Z,31.40
2023-02-05T01:01:27.786Z,41.35
2023-02-05T01:04:32.847Z,42.35
2023-02-05T01:07:38.682Z,42.65
2023-02-05T01:10:45.722Z,39.50
2023-02-05T01:13:51.934Z,38.30
2023-02-05T01:16:58.351Z,36.10
2023-02-05T01:20:03.989Z,41.65
2023-02-05T01:23:09.654Z,42.60
2023-02-05T01:26:15.080Z,45.17
2023-02-05T01:29:21.408Z,44.58
2023-02-05T01:32:27.208Z,46.80
2023-02-05T01:35:33.856Z,46.63
2023-02-05T01:38:39.601Z,43.95
2023-02-05T01:41:47.653Z,51.98
2023-02-05T01:44:54.155Z,47.67
2023-02-05T01:48:01.307Z,50.63
2023-02-05T01:51:03.662Z,43.73
2023-02-05T01:54:02.562Z,50.35
2023-02-05T01:57:11.280Z,51.33
2023-02-05T02:00:18.739Z,46.42
2023-02-05T02:03:27.041Z,42.98
2023-02-05T02:06:33.387Z,46.83
2023-02-05T02:09:39.843Z,41.75
2023-02-05T02:12:48.514Z,39.03
2023-02-05T02:15:54.556Z,55.60
2023-02-05T02:19:00.710Z,47.13
2023-02-05T02:22:35.438Z,55.73
2023-02-05T02:26:19.714Z,55.60
2023-02-05T02:29:30.811Z,59.33
2023-02-05T02:32:52.091Z,56.80
2023-02-05T02:39:19.102Z,53.92
2023-02-05T02:42:38.591Z,41.20
2023-02-05T02:45:45.154Z,48.68
2023-02-05T02:48:51.138Z,48.33
2023-02-05T02:51:57.369Z,46.48
2023-02-05T02:55:03.453Z,46.98
2023-02-05T02:58:10.250Z,41.45
2023-02-05T03:01:16.370Z,43.48
2023-02-05T03:04:30.287Z,45.23
2023-02-05T03:07:45.750Z,44.63
2023-02-05T03:10:58.360Z,46.98
2023-02-05T03:14:04.277Z,50.98
2023-02-05T03:17:10.058Z,51.40
2023-02-05T03:20:26.032Z,43.98
2023-02-05T03:23:32.106Z,54.33
2023-02-05T03:26:42.936Z,48.85
2023-02-05T03:29:53.695Z,43.85
2023-02-05T03:33:40.515Z,50.52
2023-02-05T03:37:16.623Z,46.70
2023-02-05T03:40:38.959Z,47.15
2023-02-05T03:44:10.424Z,55.35
2023-02-05T03:47:24.524Z,46.30
2023-02-05T03:50:40.510Z,42.05
2023-02-05T03:53:49.769Z,44.05
2023-02-05T03:56:52.391Z,46.00
2023-02-05T03:59:58.829Z,47.75
2023-02-05T04:03:07.429Z,59.42
2023-02-05T04:06:14.048Z,56.28
2023-02-05T04:09:20.857Z,58.83
2023-02-05T04:12:28.190Z,55.73
2023-02-05T04:15:34.800Z,53.87
2023-02-05T04:18:41.966Z,62.38
2023-02-05T04:21:47.505Z,54.83
2023-02-05T04:24:53.414Z,51.00
2023-02-05T04:28:00.447Z,53.60
2023-02-05T04:31:07.232Z,52.70
2023-02-05T04:34:14.801Z,48.15
2023-02-05T04:37:21.496Z,51.88
2023-02-05T04:40:27.442Z,53.95
2023-02-05T04:43:33.977Z,47.95
2023-02-05T04:46:39.057Z,54.55
2023-02-05T04:49:47.606Z,62.53
2023-02-05T04:52:54.307Z,51.18
2023-02-05T04:56:01.574Z,54.88
2023-02-05T04:59:07.101Z,51.10
2023-02-05T05:02:14.967Z,50.40
2023-02-05T05:05:21.439Z,51.18
2023-02-05T05:08:29.399Z,51.55
2023-02-05T05:11:35.758Z,55.60
2023-02-05T05:14:40.522Z,59.83
2023-02-05T05:17:46.472Z,54.95
2023-02-05T05:20:52.928Z,52.30
2023-02-05T05:23:59.608Z,49.80
2023-02-05T05:27:05.500Z,56.95
2023-02-05T05:30:11.323Z,56.55
2023-02-05T05:33:17.523Z,51.83
2023-02-05T05:36:23.232Z,49.93
2023-02-05T05:39:47.631Z,54.27
2023-02-05T05:43:11.884Z,51.13
2023-02-05T05:46:17.161Z,54.85
2023-02-05T05:49:22.890Z,53.05
2023-02-05T05:52:29.785Z,51.28
2023-02-05T05:55:35.637Z,48.50
2023-02-05T05:58:41.017Z,41.40
2023-02-05T06:01:46.028Z,40.28
2023-02-05T06:04:52.639Z,37.95
2023-02-05T06:07:59.661Z,35.43
2023-02-05T06:11:06.149Z,43.35
2023-02-05T06:14:13.027Z,47.55
2023-02-05T06:17:17.928Z,45.73
2023-02-05T06:20:24.778Z,36.38
2023-02-05T06:23:31.083Z,34.13
2023-02-05T06:26:36.860Z,32.53
2023-02-05T06:29:43.159Z,38.30
2023-02-05T06:32:47.963Z,42.00
2023-02-05T06:35:54.571Z,40.98
2023-02-05T06:39:00.381Z,41.88
2023-02-05T06:42:05.899Z,37.60
2023-02-05T06:45:26.027Z,35.48
2023-02-05T06:48:31.773Z,36.77
2023-02-05T06:51:37.836Z,33.60
2023-02-05T06:54:42.919Z,33.30
2023-02-05T06:57:48.511Z,34.65
2023-02-05T07:00:48.701Z,32.58
2023-02-05T07:03:41.650Z,28.20
2023-02-05T07:06:46.883Z,32.75
2023-02-05T07:09:53.376Z,31.65
2023-02-05T07:12:59.761Z,30.20
2023-02-05T07:16:06.179Z,28.20
2023-02-05T07:19:07.068Z,26.60
2023-02-05T07:22:14.793Z,26.68
2023-02-05T07:25:22.228Z,25.48
2023-02-05T07:28:28.266Z,23.20
2023-02-05T07:31:35.267Z,21.70
2023-02-05T07:34:40.877Z,19.48
2023-02-05T07:37:48.799Z,19.80
2023-02-05T07:40:54.500Z,19.25
2023-02-05T07:44:00.099Z,18.32
2023-02-05T07:47:06.543Z,17.85
2023-02-05T07:50:14.488Z,14.78
2023-02-05T07:53:20.933Z,15.00
2023-02-05T07:56:30.144Z,16.70
2023-02-05T07:59:37.096Z,14.85
2023-02-05T08:02:42.706Z,15.72
2023-02-05T08:05:48.550Z,19.00
2023-02-05T08:08:55.444Z,16.20
2023-02-05T08:12:02.517Z,17.55
2023-02-05T08:15:08.082Z,14.58
2023-02-05T08:18:14.559Z,16.10
2023-02-05T08:21:20.051Z,17.77
2023-02-05T08:24:26.842Z,15.55
2023-02-05T08:27:33.616Z,15.43
2023-02-05T08:30:40.687Z,12.23
2023-02-05T08:33:47.551Z,12.20
2023-02-05T08:36:53.478Z,10.80
2023-02-05T08:39:59.106Z,11.40
2023-02-05T08:43:07.259Z,12.65
2023-02-05T08:46:15.104Z,13.48
2023-02-05T08:49:20.642Z,14.65
2023-02-05T08:52:26.029Z,11.53
2023-02-05T08:55:32.060Z,13.00
2023-02-05T08:58:37.847Z,12.63
2023-02-05T09:01:47.093Z,12.85
2023-02-05T09:05:01.796Z,14.68
2023-02-05T09:08:00.430Z,10.60
2023-02-05T09:11:06.482Z,11.22
2023-02-05T09:14:13.710Z,10.60
2023-02-05T09:17:27.422Z,9.93
2023-02-05T09:20:33.518Z,13.38
2023-02-05T09:23:41.124Z,11.20
2023-02-05T09:26:49.995Z,11.22
2023-02-05T09:29:55.479Z,11.97
2023-02-05T09:33:02.290Z,13.70
2023-02-05T09:36:08.732Z,14.33
2023-02-05T09:39:30.760Z,19.60
2023-02-05T09:42:52.465Z,20.85
2023-02-05T09:46:26.088Z,26.97
2023-02-05T09:49:58.052Z,26.17
2023-02-05T09:53:04.570Z,28.67
2023-02-05T09:56:06.453Z,28.60
2023-02-05T09:58:58.532Z,23.57
2023-02-05T10:02:06.346Z,21.27
2023-02-05T10:05:01.975Z,21.35
2023-02-05T10:08:18.086Z,19.32
2023-02-05T10:11:11.396Z,15.23
2023-02-05T10:14:29.388Z,21.57
2023-02-05T10:18:15.549Z,17.02
2023-02-05T10:21:54.456Z,12.80
2023-02-05T10:25:41.492Z,16.77
2023-02-05T10:29:14.581Z,12.35
2023-02-05T10:32:35.135Z,13.80
2023-02-05T10:36:07.569Z,14.33
2023-02-05T10:39:17.229Z,15.08
2023-02-05T10:42:42.985Z,14.40
2023-02-05T10:45:48.665Z,14.50
2023-02-05T10:49:11.110Z,19.45
2023-02-05T10:52:17.277Z,14.35
2023-02-05T10:55:27.092Z,13.15
2023-02-05T10:59:16.532Z,15.20
2023-02-05T11:02:24.488Z,13.53
2023-02-05T11:05:49.189Z,14.13
2023-02-05T11:08:58.225Z,11.55
2023-02-05T11:12:10.538Z,22.23
2023-02-05T11:15:17.375Z,14.60
2023-02-05T11:18:30.622Z,14.07
2023-02-05T11:21:36.275Z,21.02
2023-02-05T11:24:50.960Z,12.75
2023-02-05T11:28:14.464Z,12.68
2023-02-05T11:31:50.013Z,17.35
2023-02-05T11:34:55.295Z,16.75
2023-02-05T11:38:06.628Z,14.55
2023-02-05T11:41:18.574Z,18.62
2023-02-05T11:44:35.880Z,21.20
2023-02-05T11:47:50.982Z,24.80
2023-02-05T11:51:00.595Z,23.75
2023-02-05T11:54:14.553Z,27.52
2023-02-05T11:57:37.628Z,31.95
2023-02-05T12:00:46.505Z,28.23
2023-02-05T12:03:51.999Z,28.85
2023-02-05T12:07:08.413Z,25.82
2023-02-05T12:10:15.909Z,23.38
2023-02-05T12:13:56.443Z,27.02
2023-02-05T12:17:16.770Z,31.43
2023-02-05T12:20:47.901Z,38.53
2023-02-05T12:24:40.970Z,77.72
2023-02-05T12:28:20.593Z,42.23
2023-02-05T12:32:17.079Z,35.90
2023-02-05T12:36:15.785Z,41.18
2023-02-05T12:39:47.351Z,27.07
2023-02-05T12:42:52.135Z,30.27
2023-02-05T12:46:21.786Z,30.82
2023-02-05T12:50:05.502Z,28.77
2023-02-05T12:53:50.882Z,27.80
2023-02-05T12:57:24.099Z,23.05
2023-02-05T13:00:39.091Z,20.88
2023-02-05T13:04:01.791Z,26.97
2023-02-05T13:07:15.154Z,23.10
2023-02-05T13:10:23.452Z,23.87
2023-02-05T13:13:35.352Z,27.62
2023-02-05T13:16:45.216Z,47.08
2023-02-05T13:20:05.438Z,30.48
2023-02-05T13:23:28.574Z,26.85
2023-02-05T13:26:54.689Z,26.42
2023-02-05T13:30:04.907Z,29.10
2023-02-05T13:33:14.735Z,27.27
2023-02-05T13:36:57.476Z,24.43
2023-02-05T13:40:35.771Z,26.55
2023-02-05T13:43:48.599Z,30.17
2023-02-05T13:47:26.294Z,20.05
2023-02-05T13:51:00.643Z,20.50
2023-02-05T13:54:29.808Z,22.55
2023-02-05T13:57:43.159Z,25.70
2023-02-05T14:00:50.131Z,119.00
2023-02-05T14:04:00.256Z,51.42
2023-02-05T14:07:23.103Z,21.02
2023-02-05T14:10:50.168Z,22.45
2023-02-05T14:13:56.925Z,13.65
2023-02-05T14:16:55.971Z,18.67
2023-02-05T14:20:01.469Z,10.95
2023-02-05T14:22:54.902Z,12.18
2023-02-05T14:25:58.055Z,13.13
2023-02-05T14:28:58.391Z,15.88
2023-02-05T14:32:04.705Z,96.67
2023-02-05T14:35:47.211Z,47.25
2023-02-05T14:38:53.088Z,27.73
2023-02-05T14:42:07.408Z,20.80
2023-02-05T14:45:14.099Z,18.70
2023-02-05T14:48:20.118Z,24.45
2023-02-05T14:51:57.629Z,24.40
2023-02-05T14:55:08.166Z,23.38
2023-02-05T14:58:21.378Z,27.02
2023-02-05T15:01:56.605Z,28.05
2023-02-05T15:05:04.415Z,23.38
2023-02-05T15:08:33.445Z,32.65
2023-02-05T15:12:04.696Z,28.50
2023-02-05T15:15:13.964Z,38.58
2023-02-05T15:18:38.861Z,29.50
2023-02-05T15:22:01.367Z,31.70
2023-02-05T15:25:07.975Z,35.48
2023-02-05T15:28:25.064Z,31.52
2023-02-05T15:31:58.334Z,34.00
2023-02-05T15:35:10.447Z,34.30
2023-02-05T15:38:30.887Z,33.30
2023-02-05T15:41:36.979Z,46.00
2023-02-05T15:44:48.946Z,34.88
2023-02-05T15:47:55.783Z,31.05
2023-02-05T15:51:10.009Z,32.35
2023-02-05T15:54:17.764Z,32.58
2023-02-05T15:57:29.802Z,28.73
2023-02-05T16:00:39.235Z,34.58
2023-02-05T16:03:51.060Z,32.33
2023-02-05T16:06:58.349Z,34.40
2023-02-05T16:10:08.096Z,42.50
2023-02-05T16:13:33.619Z,37.23
2023-02-05T16:16:38.765Z,49.50
2023-02-05T16:19:57.276Z,40.98
2023-02-05T16:23:16.278Z,40.88
2023-02-05T16:26:29.451Z,36.55
2023-02-05T16:29:25.764Z,40.30
2023-02-05T16:32:16.364Z,47.50
2023-02-05T16:35:10.652Z,53.35
2023-02-05T16:38:16.668Z,45.52
2023-02-05T16:41:47.197Z,39.80
2023-02-05T16:44:54.450Z,48.10
2023-02-05T16:48:03.410Z,46.40
2023-02-05T16:51:11.903Z,43.33
2023-02-05T16:54:29.839Z,48.45
2023-02-05T16:57:43.506Z,61.25
2023-02-05T17:00:49.183Z,48.33
2023-02-05T17:03:58.053Z,51.35
2023-02-05T17:07:05.305Z,53.70
2023-02-05T17:10:27.633Z,43.42
2023-02-05T17:13:58.077Z,48.52
2023-02-05T17:17:33.310Z,98.65
2023-02-05T17:20:42.819Z,48.13
2023-02-05T17:26:54.888Z,46.48
2023-02-05T17:30:02.906Z,35.88
2023-02-05T17:33:09.852Z,35.98
2023-02-05T17:36:15.739Z,34.40
2023-02-05T17:39:21.571Z,26.00
2023-02-05T17:42:37.819Z,30.72
2023-02-05T17:45:47.566Z,27.93
2023-02-05T17:48:54.697Z,25.72
2023-02-05T17:52:01.767Z,28.30
2023-02-05T17:55:07.467Z,28.45
2023-02-05T17:58:14.034Z,27.62
2023-02-05T18:01:20.334Z,27.52
2023-02-05T18:04:28.699Z,28.27
2023-02-05T18:07:51.120Z,25.82
2023-02-05T18:11:00.166Z,27.32
2023-02-05T18:14:07.080Z,26.50
2023-02-05T18:17:13.361Z,31.25
2023-02-05T18:20:20.221Z,23.22
2023-02-05T18:23:29.024Z,28.27
2023-02-05T18:26:34.220Z,25.88
2023-02-05T18:29:42.155Z,27.37
2023-02-05T18:32:47.188Z,22.67
2023-02-05T18:35:54.380Z,27.05
2023-02-05T18:39:01.906Z,24.55
2023-02-05T18:42:08.640Z,29.40
2023-02-05T18:45:14.278Z,25.88
2023-02-05T18:48:21.829Z,26.60
2023-02-05T18:51:29.835Z,28.30
2023-02-05T18:54:36.630Z,27.10
2023-02-05T18:57:43.037Z,29.77
2023-02-05T19:00:48.449Z,27.10
2023-02-05T19:03:54.717Z,27.15
2023-02-05T19:07:04.660Z,27.37
2023-02-05T19:13:17.011Z,29.32
2023-02-05T19:16:25.324Z,32.13
2023-02-05T19:19:34.675Z,28.17
2023-02-05T19:22:41.410Z,28.95
2023-02-05T19:25:49.015Z,29.48
2023-02-05T19:28:56.206Z,30.90
2023-02-05T19:32:01.667Z,28.83
2023-02-05T19:35:04.977Z,30.08
2023-02-05T19:38:10.986Z,30.00
2023-02-05T19:41:21.798Z,33.13
2023-02-05T19:44:29.317Z,32.30
2023-02-05T19:47:37.289Z,32.53
2023-02-05T19:50:43.653Z,31.52
2023-02-05T19:53:52.321Z,32.65
2023-02-05T19:56:59.124Z,34.70
2023-02-05T20:00:04.989Z,34.13
2023-02-05T20:03:11.060Z,37.63
2023-02-05T20:06:22.531Z,33.42
2023-02-05T20:09:28.816Z,36.58
2023-02-05T20:12:36.500Z,35.58
2023-02-05T20:15:42.410Z,34.73
2023-02-05T20:18:48.890Z,36.93
2023-02-05T20:21:55.885Z,34.90
2023-02-05T20:25:01.672Z,36.30
2023-02-05T20:28:07.900Z,37.73
2023-02-05T20:31:33.258Z,37.70
2023-02-05T20:34:42.849Z,37.00
2023-02-05T20:37:50.300Z,36.10
2023-02-05T20:40:56.544Z,38.40
2023-02-05T20:44:04.316Z,37.53
2023-02-05T20:47:09.859Z,38.13
2023-02-05T20:50:16.416Z,39.65
2023-02-05T20:53:23.399Z,36.85
2023-02-05T20:56:35.928Z,39.40
2023-02-05T20:59:44.875Z,42.60
2023-02-05T21:02:51.308Z,43.20
2023-02-05T21:05:58.211Z,44.50
2023-02-05T21:09:05.779Z,42.93
2023-02-05T21:12:13.334Z,45.90
2023-02-05T21:15:21.718Z,47.20
2023-02-05T21:18:27.984Z,40.48
2023-02-05T21:21:41.301Z,44.18
2023-02-05T21:24:47.811Z,44.58
2023-02-05T21:27:53.730Z,42.70
2023-02-05T21:31:00.119Z,43.85
2023-02-05T21:34:07.752Z,42.80
2023-02-05T21:37:13.908Z,43.25
2023-02-05T21:40:21.638Z,46.73
2023-02-05T21:43:27.255Z,43.78
2023-02-05T21:46:33.288Z,43.02
2023-02-05T21:49:41.006Z,44.60
2023-02-05T21:52:41.612Z,48.10
2023-02-05T21:55:49.369Z,41.28
2023-02-05T21:58:56.028Z,42.58
2023-02-05T22:02:02.653Z,45.08
2023-02-05T22:05:10.359Z,46.63
2023-02-05T22:08:15.742Z,43.30
2023-02-05T22:11:25.017Z,48.48
2023-02-05T22:14:32.879Z,39.00
2023-02-05T22:17:38.729Z,39.63
2023-02-05T22:20:46.578Z,40.60
2023-02-05T22:23:52.657Z,45.43
2023-02-05T22:27:00.894Z,47.33
2023-02-05T22:30:08.184Z,46.75
2023-02-05T22:33:17.625Z,47.62
2023-02-05T22:36:25.459Z,46.45
2023-02-05T22:39:33.213Z,46.00
2023-02-05T22:42:39.716Z,42.55
2023-02-05T22:45:47.693Z,45.45
2023-02-05T22:48:58.374Z,45.28
2023-02-05T22:52:07.604Z,41.37
2023-02-05T22:55:14.728Z,42.85
2023-02-05T22:58:22.431Z,41.70
2023-02-05T23:01:35.799Z,42.98
2023-02-05T23:04:42.349Z,42.03
2023-02-05T23:07:47.842Z,43.40
2023-02-05T23:10:54.368Z,46.05
2023-02-05T23:14:02.390Z,46.10
2023-02-05T23:17:09.282Z,44.93
2023-02-05T23:20:14.749Z,43.85
2023-02-05T23:23:21.475Z,43.75
2023-02-05T23:26:32.262Z,50.03
2023-02-05T23:32:46.696Z,43.35
2023-02-05T23:35:52.665Z,45.25
2023-02-05T23:38:59.421Z,42.17
2023-02-05T23:42:05.155Z,50.40
2023-02-05T23:45:10.900Z,40.70
2023-02-05T23:48:17.343Z,42.40
2023-02-05T23:51:23.260Z,45.70
2023-02-05T23:54:29.452Z,42.33
2023-02-05T23:57:37.240Z,39.58
